This is the latest recevied weather packets stored in our database for station/object IZ6EGX-13. If no packets are shown the sender has not sent any weather packets the latest 10 day(s).
| Time | Temp. | Humidity | Pressure | Rain* | Wind** | Luminosity | Snow |
|---|---|---|---|---|---|---|---|
| 1777275977 | 21.11° C | 50% | 1018.4 hPa | 0 mm | - | - | - |
| 1777275377 | 21.11° C | 53% | 1018.3 hPa | 0 mm | - | - | - |
| 1777274778 | 21.11° C | 52% | 1018.3 hPa | 0 mm | - | - | - |
| 1777274177 | 20° C | 56% | 1018.4 hPa | 0 mm | - | - | - |
| 1777273577 | 20° C | 56% | 1018.4 hPa | 0 mm | - | - | - |
| 1777272978 | 21.11° C | 51% | 1018.2 hPa | 0 mm | - | - | - |
| 1777272377 | 20.56° C | 46% | 1018.2 hPa | 0 mm | - | - | - |
| 1777271777 | 20.56° C | 43% | 1018.2 hPa | 0 mm | - | - | - |
| 1777271177 | 21.11° C | 42% | 1018.1 hPa | 0 mm | - | - | - |
| 1777270577 | 20.56° C | 44% | 1018.2 hPa | 0 mm | - | - | - |
| 1777269978 | 20.56° C | 48% | 1018.2 hPa | 0 mm | - | - | - |
| 1777269377 | 20° C | 50% | 1018.2 hPa | 0 mm | - | - | - |
| 1777268777 | 20.56° C | 48% | 1018.1 hPa | 0 mm | - | - | - |
| 1777268177 | 19.44° C | 45% | 1018.3 hPa | 0 mm | - | - | - |
| 1777267578 | 18.89° C | 45% | 1018.2 hPa | 0 mm | - | - | - |
| 1777266977 | 18.33° C | 47% | 1018.2 hPa | 0 mm | - | - | - |
| 1777266377 | 18.33° C | 47% | 1018.1 hPa | 0 mm | - | - | - |
| 1777265777 | 17.78° C | 47% | 1018.1 hPa | 0 mm | - | - | - |
| 1777265177 | 17.22° C | 48% | 1018 hPa | 0 mm | - | - | - |
| 1777264577 | 17.22° C | 49% | 1018 hPa | 0 mm | - | - | - |
| 1777263977 | 17.22° C | 49% | 1018 hPa | 0 mm | - | - | - |
| 1777263377 | 16.67° C | 50% | 1017.9 hPa | 0 mm | - | - | - |
| 1777262777 | 17.22° C | 49% | 1017.9 hPa | 0 mm | - | - | - |
| 1777262178 | 17.22° C | 49% | 1017.8 hPa | 0 mm | - | - | - |
| 1777261577 | 17.22° C | 49% | 1017.8 hPa | 0 mm | - | - | - |
* Rain latest hour (hover to see other rain measurements)
** Current wind speed in m/s (hover to see current wind gust speed)